createdAt,value
2023-05-05T00:00:25.913Z,25.48
2023-05-05T00:01:25.931Z,25.49
2023-05-05T00:02:25.992Z,25.47
2023-05-05T00:03:26.090Z,25.48
2023-05-05T00:04:26.049Z,25.47
2023-05-05T00:05:26.083Z,25.49
2023-05-05T00:06:26.123Z,25.47
2023-05-05T00:07:26.163Z,25.48
2023-05-05T00:08:26.234Z,25.47
2023-05-05T00:09:26.257Z,25.48
2023-05-05T00:10:26.288Z,25.47
2023-05-05T00:11:26.349Z,25.48
2023-05-05T00:12:26.356Z,25.47
2023-05-05T00:13:26.390Z,25.47
2023-05-05T00:14:26.463Z,25.47
2023-05-05T00:15:26.498Z,25.49
2023-05-05T00:16:26.571Z,25.48
2023-05-05T00:17:26.570Z,25.45
2023-05-05T00:18:26.586Z,25.48
2023-05-05T00:19:26.636Z,25.48
2023-05-05T00:20:26.706Z,25.51
2023-05-05T00:21:26.714Z,25.48
2023-05-05T00:22:26.788Z,25.48
2023-05-05T00:23:26.796Z,25.49
2023-05-05T00:24:26.846Z,25.47
2023-05-05T00:25:26.869Z,25.48
2023-05-05T00:26:26.924Z,25.49
2023-05-05T00:27:26.934Z,25.51
2023-05-05T00:28:27.003Z,25.48
2023-05-05T00:29:27.010Z,25.48
2023-05-05T00:30:27.079Z,25.47
2023-05-05T00:31:27.208Z,25.47
2023-05-05T00:32:27.199Z,25.47
2023-05-05T00:33:27.190Z,25.47
2023-05-05T00:34:27.267Z,25.48
2023-05-05T00:35:27.309Z,25.47
2023-05-05T00:36:27.359Z,25.45
2023-05-05T00:37:27.353Z,25.44
2023-05-05T00:38:27.414Z,25.45
2023-05-05T00:39:27.467Z,25.44
2023-05-05T00:40:27.544Z,25.45
2023-05-05T00:41:27.531Z,25.42
2023-05-05T00:42:27.605Z,25.44
2023-05-05T00:43:27.654Z,25.44
2023-05-05T00:44:27.671Z,25.42
2023-05-05T00:45:27.706Z,25.42
2023-05-05T00:46:27.906Z,25.44
2023-05-05T00:47:27.864Z,25.41
2023-05-05T00:48:27.844Z,25.40
2023-05-05T00:49:27.968Z,25.40
2023-05-05T00:50:27.962Z,25.38
2023-05-05T00:51:28.000Z,25.40
2023-05-05T00:52:28.035Z,25.37
2023-05-05T00:53:28.083Z,25.40
2023-05-05T00:54:28.157Z,25.37
2023-05-05T00:55:28.199Z,25.38
2023-05-05T00:56:28.238Z,25.37
2023-05-05T00:57:28.314Z,25.40
2023-05-05T00:58:28.350Z,25.34
2023-05-05T00:59:28.439Z,25.37
2023-05-05T01:00:28.450Z,25.34
2023-05-05T01:01:28.570Z,25.38
2023-05-05T01:02:28.649Z,25.34
2023-05-05T01:03:28.733Z,25.35
2023-05-05T01:04:28.673Z,25.34
2023-05-05T01:05:28.738Z,25.35
2023-05-05T01:06:28.779Z,25.34
2023-05-05T01:07:28.825Z,25.34
2023-05-05T01:08:28.885Z,25.35
2023-05-05T01:09:28.984Z,25.33
2023-05-05T01:10:28.983Z,25.35
2023-05-05T01:11:29.059Z,25.35
2023-05-05T01:12:29.107Z,25.33
2023-05-05T01:13:29.158Z,25.35
2023-05-05T01:14:29.194Z,25.35
2023-05-05T01:15:29.221Z,25.33
2023-05-05T01:16:29.380Z,25.31
2023-05-05T01:17:29.363Z,25.31
2023-05-05T01:18:29.392Z,25.30
2023-05-05T01:19:29.460Z,25.30
2023-05-05T01:20:29.508Z,25.28
2023-05-05T01:21:29.566Z,25.27
2023-05-05T01:22:29.593Z,25.27
2023-05-05T01:23:29.633Z,25.30
2023-05-05T01:24:29.663Z,25.27
2023-05-05T01:25:29.708Z,25.30
2023-05-05T01:26:29.758Z,25.27
2023-05-05T01:27:29.771Z,25.27
2023-05-05T01:28:29.768Z,25.26
2023-05-05T01:29:29.838Z,25.27
2023-05-05T01:30:29.854Z,25.24
2023-05-05T01:31:29.946Z,25.27
2023-05-05T01:32:30.004Z,25.26
2023-05-05T01:33:29.983Z,25.26
2023-05-05T01:34:30.079Z,25.26
2023-05-05T01:35:30.120Z,25.26
2023-05-05T01:36:30.113Z,25.24
2023-05-05T01:37:30.136Z,25.27
2023-05-05T01:38:30.146Z,25.26
2023-05-05T01:39:30.254Z,25.26
2023-05-05T01:40:30.254Z,25.24
2023-05-05T01:41:30.300Z,25.24
2023-05-05T01:42:30.340Z,25.23
2023-05-05T01:43:30.352Z,25.24
2023-05-05T01:44:30.428Z,25.21
2023-05-05T01:45:30.502Z,25.23
2023-05-05T01:46:30.493Z,25.23
2023-05-05T01:47:30.559Z,25.23
2023-05-05T01:48:30.568Z,25.24
2023-05-05T01:49:30.547Z,25.21
2023-05-05T01:50:30.596Z,25.21
2023-05-05T01:51:30.622Z,25.20
2023-05-05T01:52:30.586Z,25.20
2023-05-05T01:53:30.631Z,25.21
2023-05-05T01:54:30.620Z,25.21
2023-05-05T01:55:30.664Z,25.18
2023-05-05T01:56:30.741Z,25.21
2023-05-05T01:57:30.685Z,25.18
2023-05-05T01:58:30.676Z,25.17
2023-05-05T01:59:30.677Z,25.17
2023-05-05T02:00:30.738Z,25.20
2023-05-05T02:01:30.758Z,25.17
2023-05-05T02:02:30.787Z,25.16
2023-05-05T02:03:30.786Z,25.18
2023-05-05T02:04:30.717Z,25.17
2023-05-05T02:05:30.742Z,25.17
2023-05-05T02:06:30.767Z,25.14
2023-05-05T02:07:30.729Z,25.16
2023-05-05T02:08:30.756Z,25.18
2023-05-05T02:09:30.769Z,25.18
2023-05-05T02:10:30.758Z,25.16
2023-05-05T02:11:30.773Z,25.16
2023-05-05T02:12:30.846Z,25.17
2023-05-05T02:13:30.782Z,25.16
2023-05-05T02:14:30.812Z,25.14
2023-05-05T02:15:30.865Z,25.18
2023-05-05T02:16:30.802Z,25.14
2023-05-05T02:17:30.862Z,25.16
2023-05-05T02:18:30.822Z,25.14
2023-05-05T02:19:30.826Z,25.14
2023-05-05T02:20:30.907Z,25.14
2023-05-05T02:21:30.868Z,25.13
2023-05-05T02:22:30.860Z,25.11
2023-05-05T02:23:30.915Z,25.11
2023-05-05T02:24:31.016Z,25.11
2023-05-05T02:25:30.875Z,25.11
2023-05-05T02:26:30.884Z,25.13
2023-05-05T02:27:30.877Z,25.11
2023-05-05T02:28:30.837Z,25.14
2023-05-05T02:29:30.868Z,25.09
2023-05-05T02:30:30.838Z,25.10
2023-05-05T02:31:30.907Z,25.10
2023-05-05T02:32:30.845Z,25.10
2023-05-05T02:33:30.816Z,25.09
2023-05-05T02:34:30.824Z,25.07
2023-05-05T02:35:31.504Z,25.09
2023-05-05T02:36:30.791Z,25.07
2023-05-05T02:37:30.787Z,25.06
2023-05-05T02:38:30.804Z,25.07
2023-05-05T02:39:30.780Z,25.06
2023-05-05T02:40:30.800Z,25.06
2023-05-05T02:41:30.837Z,25.06
2023-05-05T02:42:30.814Z,25.06
2023-05-05T02:43:30.817Z,25.05
2023-05-05T02:44:30.853Z,25.05
2023-05-05T02:45:30.893Z,25.06
2023-05-05T02:46:30.917Z,25.06
2023-05-05T02:47:30.954Z,25.06
2023-05-05T02:48:30.898Z,25.07
2023-05-05T02:49:30.905Z,25.05
2023-05-05T02:50:30.945Z,25.05
2023-05-05T02:51:30.932Z,25.02
2023-05-05T02:52:30.918Z,25.05
2023-05-05T02:53:30.925Z,25.03
2023-05-05T02:54:30.965Z,25.00
2023-05-05T02:55:30.960Z,25.02
2023-05-05T02:56:30.967Z,25.02
2023-05-05T02:57:31.003Z,25.02
2023-05-05T02:58:31.035Z,24.99
2023-05-05T02:59:31.021Z,24.97
2023-05-05T03:00:31.078Z,24.97
2023-05-05T03:01:31.073Z,24.97
2023-05-05T03:02:31.189Z,24.97
2023-05-05T03:03:31.082Z,24.97
2023-05-05T03:04:31.057Z,24.93
2023-05-05T03:05:31.094Z,24.94
2023-05-05T03:06:31.144Z,24.99
2023-05-05T03:07:31.100Z,24.97
2023-05-05T03:08:31.098Z,24.97
2023-05-05T03:09:31.114Z,24.94
2023-05-05T03:10:31.157Z,24.99
2023-05-05T03:11:31.146Z,24.94
2023-05-05T03:12:31.183Z,24.99
2023-05-05T03:13:31.154Z,25.00
2023-05-05T03:14:33.297Z,25.02
2023-05-05T03:15:31.199Z,24.99
2023-05-05T03:16:31.169Z,25.00
2023-05-05T03:17:31.203Z,24.99
2023-05-05T03:18:31.215Z,24.99
2023-05-05T03:19:31.234Z,25.00
2023-05-05T03:20:31.252Z,24.99
2023-05-05T03:21:31.245Z,24.99
2023-05-05T03:22:31.275Z,25.00
2023-05-05T03:23:31.268Z,25.02
2023-05-05T03:24:31.325Z,25.02
2023-05-05T03:25:32.105Z,25.00
2023-05-05T03:26:31.317Z,25.02
2023-05-05T03:27:31.364Z,25.00
2023-05-05T03:28:31.329Z,24.99
2023-05-05T03:29:31.369Z,25.00
2023-05-05T03:30:31.371Z,25.02
2023-05-05T03:31:31.408Z,25.02
2023-05-05T03:32:31.411Z,25.00
2023-05-05T03:33:31.414Z,24.99
2023-05-05T03:34:31.417Z,25.03
2023-05-05T03:35:31.413Z,25.02
2023-05-05T03:36:31.436Z,24.99
2023-05-05T03:37:31.437Z,24.99
2023-05-05T03:38:31.416Z,24.97
2023-05-05T03:39:31.455Z,24.96
2023-05-05T03:40:43.030Z,24.94
2023-05-05T03:41:32.462Z,24.94
2023-05-05T03:42:31.477Z,24.94
2023-05-05T03:43:31.451Z,24.94
2023-05-05T03:44:31.465Z,24.93
2023-05-05T03:45:31.474Z,24.91
2023-05-05T03:46:31.438Z,24.94
2023-05-05T03:47:31.472Z,24.91
2023-05-05T03:48:31.417Z,24.90
2023-05-05T03:49:31.433Z,24.90
2023-05-05T03:50:31.413Z,24.89
2023-05-05T03:51:31.444Z,24.87
2023-05-05T03:52:31.375Z,24.87
2023-05-05T03:53:31.371Z,24.86
2023-05-05T03:54:31.373Z,24.87
2023-05-05T03:55:31.384Z,24.86
2023-05-05T03:56:31.391Z,24.86
2023-05-05T03:57:31.369Z,24.86
2023-05-05T03:58:31.344Z,24.85
2023-05-05T03:59:31.334Z,24.86
2023-05-05T04:00:31.335Z,24.85
2023-05-05T04:01:31.324Z,24.85
2023-05-05T04:02:31.411Z,24.87
2023-05-05T04:03:31.565Z,24.85
2023-05-05T04:04:31.402Z,24.89
2023-05-05T04:05:31.304Z,24.89
2023-05-05T04:06:31.285Z,24.86
2023-05-05T04:07:31.271Z,24.86
2023-05-05T04:08:31.286Z,24.87
2023-05-05T04:09:31.323Z,24.87
2023-05-05T04:10:31.354Z,24.90
2023-05-05T04:11:31.365Z,24.87
2023-05-05T04:12:31.378Z,24.90
2023-05-05T04:13:31.343Z,24.90
2023-05-05T04:14:31.330Z,24.90
2023-05-05T04:15:31.385Z,24.89
2023-05-05T04:16:31.406Z,24.89
2023-05-05T04:17:31.417Z,24.91
2023-05-05T04:18:31.419Z,24.90
2023-05-05T04:19:31.435Z,24.93
2023-05-05T04:20:31.466Z,24.91
2023-05-05T04:21:31.437Z,24.93
2023-05-05T04:22:31.450Z,24.91
2023-05-05T04:23:31.469Z,24.91
2023-05-05T04:24:31.465Z,24.91
2023-05-05T04:25:31.514Z,24.93
2023-05-05T04:26:33.067Z,24.91
2023-05-05T04:27:31.504Z,24.96
2023-05-05T04:28:31.497Z,24.91
2023-05-05T04:29:31.542Z,24.93
2023-05-05T04:30:31.519Z,24.93
2023-05-05T04:31:31.589Z,24.94
2023-05-05T04:32:31.575Z,24.91
2023-05-05T04:33:31.539Z,24.93
2023-05-05T04:34:31.554Z,24.96
2023-05-05T04:35:31.554Z,24.94
2023-05-05T04:36:31.607Z,24.94
2023-05-05T04:37:31.583Z,24.93
2023-05-05T04:38:31.659Z,24.94
2023-05-05T04:39:31.642Z,24.96
2023-05-05T04:40:31.632Z,24.94
2023-05-05T04:41:31.663Z,24.94
2023-05-05T04:42:31.668Z,24.96
2023-05-05T04:43:31.669Z,24.94
2023-05-05T04:44:31.733Z,24.96
2023-05-05T04:45:31.733Z,24.91
2023-05-05T04:46:31.783Z,24.93
2023-05-05T04:47:31.845Z,24.94
2023-05-05T04:48:31.792Z,24.93
2023-05-05T04:49:31.776Z,24.96
2023-05-05T04:50:31.776Z,24.96
2023-05-05T04:51:31.835Z,24.96
2023-05-05T04:52:31.826Z,24.93
2023-05-05T04:53:31.807Z,24.93
2023-05-05T04:54:31.841Z,24.94
2023-05-05T04:55:31.833Z,24.94
2023-05-05T04:56:31.889Z,24.94
2023-05-05T04:57:31.893Z,24.94
2023-05-05T04:58:31.876Z,24.93
2023-05-05T04:59:31.858Z,24.94
2023-05-05T05:00:31.881Z,24.93
2023-05-05T05:01:31.929Z,24.94
2023-05-05T05:02:31.962Z,24.93
2023-05-05T05:03:32.143Z,24.94
2023-05-05T05:04:31.912Z,24.96
2023-05-05T05:05:31.958Z,24.97
2023-05-05T05:06:31.969Z,24.97
2023-05-05T05:07:31.967Z,24.99
2023-05-05T05:08:31.956Z,24.99
2023-05-05T05:09:31.998Z,24.99
2023-05-05T05:10:31.986Z,24.99
2023-05-05T05:11:32.019Z,24.96
2023-05-05T05:12:32.097Z,24.99
2023-05-05T05:13:32.039Z,24.99
2023-05-05T05:14:32.017Z,24.97
2023-05-05T05:15:32.049Z,24.99
2023-05-05T05:16:32.062Z,24.99
2023-05-05T05:17:32.090Z,24.99
2023-05-05T05:18:32.060Z,24.99
2023-05-05T05:19:32.072Z,24.97
2023-05-05T05:20:32.060Z,24.99
2023-05-05T05:21:32.056Z,25.00
2023-05-05T05:22:32.074Z,25.02
2023-05-05T05:23:32.092Z,24.96
2023-05-05T05:24:32.083Z,24.99
2023-05-05T05:25:32.106Z,24.97
2023-05-05T05:26:32.144Z,25.03
2023-05-05T05:27:33.055Z,24.99
2023-05-05T05:28:32.154Z,24.99
2023-05-05T05:29:32.152Z,24.99
2023-05-05T05:30:32.154Z,25.02
2023-05-05T05:31:32.174Z,24.99
2023-05-05T05:32:33.179Z,24.99
2023-05-05T05:33:32.210Z,25.00
2023-05-05T05:34:32.194Z,25.00
2023-05-05T05:35:32.200Z,25.00
2023-05-05T05:36:32.551Z,25.02
2023-05-05T05:37:32.281Z,24.99
2023-05-05T05:38:32.295Z,25.02
2023-05-05T05:39:32.268Z,25.02
2023-05-05T05:40:32.320Z,25.02
2023-05-05T05:41:32.376Z,25.05
2023-05-05T05:42:32.309Z,25.06
2023-05-05T05:43:32.312Z,25.09
2023-05-05T05:44:32.356Z,25.11
2023-05-05T05:45:32.410Z,25.16
2023-05-05T05:46:32.482Z,25.21
2023-05-05T05:47:32.525Z,25.27
2023-05-05T05:48:32.523Z,25.30
2023-05-05T05:49:32.590Z,25.34
2023-05-05T05:50:32.620Z,25.41
2023-05-05T05:51:32.682Z,25.44
2023-05-05T05:52:32.697Z,25.52
2023-05-05T05:53:32.767Z,25.58
2023-05-05T05:54:32.773Z,25.58
2023-05-05T05:55:32.893Z,25.60
2023-05-05T05:56:32.858Z,25.62
2023-05-05T05:57:32.916Z,25.66
2023-05-05T05:58:32.964Z,25.65
2023-05-05T05:59:32.989Z,25.64
2023-05-05T06:00:33.012Z,25.62
2023-05-05T06:01:33.088Z,25.60
2023-05-05T06:02:33.250Z,25.58
2023-05-05T06:03:33.343Z,25.54
2023-05-05T06:04:33.363Z,25.54
2023-05-05T06:05:33.268Z,25.52
2023-05-05T06:06:33.377Z,25.48
2023-05-05T06:07:33.385Z,25.47
2023-05-05T06:08:33.445Z,25.44
2023-05-05T06:09:33.496Z,25.44
2023-05-05T06:10:34.007Z,25.41
2023-05-05T06:11:33.661Z,25.41
2023-05-05T06:12:33.715Z,25.41
2023-05-05T06:13:33.697Z,25.38
2023-05-05T06:14:33.759Z,25.38
2023-05-05T06:15:33.810Z,25.37
2023-05-05T06:16:33.990Z,25.35
2023-05-05T06:17:33.931Z,25.34
2023-05-05T06:18:34.040Z,25.35
2023-05-05T06:19:34.066Z,25.33
2023-05-05T06:20:34.092Z,25.34
2023-05-05T06:21:34.156Z,25.34
2023-05-05T06:22:34.204Z,25.31
2023-05-05T06:23:34.264Z,25.30
2023-05-05T06:24:34.289Z,25.31
2023-05-05T06:25:34.327Z,25.30
2023-05-05T06:26:34.572Z,25.30
2023-05-05T06:27:34.454Z,25.30
2023-05-05T06:28:34.461Z,25.28
2023-05-05T06:29:34.506Z,25.30
2023-05-05T06:30:34.571Z,25.28
2023-05-05T06:31:34.693Z,25.27
2023-05-05T06:32:34.656Z,25.27
2023-05-05T06:33:34.674Z,25.27
2023-05-05T06:34:34.725Z,25.26
2023-05-05T06:35:34.770Z,25.27
2023-05-05T06:36:34.837Z,25.24
2023-05-05T06:37:34.777Z,25.21
2023-05-05T06:38:34.792Z,25.24
2023-05-05T06:39:34.795Z,25.23
2023-05-05T06:40:34.813Z,25.21
2023-05-05T06:41:34.857Z,25.21
2023-05-05T06:42:34.853Z,25.21
2023-05-05T06:43:34.845Z,25.20
2023-05-05T06:44:34.856Z,25.18
2023-05-05T06:45:34.921Z,25.20
2023-05-05T06:46:34.945Z,25.17
2023-05-05T06:47:34.952Z,25.17
2023-05-05T06:48:34.934Z,25.11
2023-05-05T06:49:34.896Z,25.11
2023-05-05T06:50:35.092Z,25.14
2023-05-05T06:51:34.993Z,25.16
2023-05-05T06:52:34.942Z,25.18
2023-05-05T06:53:34.990Z,25.21
2023-05-05T06:54:35.067Z,25.23
2023-05-05T06:55:35.106Z,25.28
2023-05-05T06:56:35.194Z,25.30
2023-05-05T06:57:35.205Z,25.34
2023-05-05T06:58:35.230Z,25.40
2023-05-05T06:59:35.286Z,25.41
2023-05-05T07:00:35.351Z,25.45
2023-05-05T07:01:35.344Z,25.48
2023-05-05T07:02:35.438Z,25.51
2023-05-05T07:03:35.457Z,25.54
2023-05-05T07:04:35.428Z,25.58
2023-05-05T07:05:35.472Z,25.58
2023-05-05T07:06:35.678Z,25.60
2023-05-05T07:07:35.512Z,25.60
2023-05-05T07:08:35.520Z,25.62
2023-05-05T07:09:35.548Z,25.62
2023-05-05T07:10:35.605Z,25.62
2023-05-05T07:11:35.633Z,25.62
2023-05-05T07:12:35.684Z,25.61
2023-05-05T07:13:35.725Z,25.61
2023-05-05T07:14:35.721Z,25.60
2023-05-05T07:15:35.783Z,25.58
2023-05-05T07:16:35.846Z,25.62
2023-05-05T07:17:35.818Z,25.60
2023-05-05T07:18:35.864Z,25.61
2023-05-05T07:19:35.853Z,25.60
2023-05-05T07:20:35.932Z,25.61
2023-05-05T07:21:35.931Z,25.57
2023-05-05T07:22:36.058Z,25.61
2023-05-05T07:23:35.988Z,25.60
2023-05-05T07:24:36.066Z,25.61
2023-05-05T07:25:36.046Z,25.60
2023-05-05T07:26:36.121Z,25.58
2023-05-05T07:27:36.136Z,25.58
2023-05-05T07:28:36.169Z,25.58
2023-05-05T07:29:36.243Z,25.60
2023-05-05T07:30:36.205Z,25.61
2023-05-05T07:31:36.318Z,25.64
2023-05-05T07:32:36.262Z,25.62
2023-05-05T07:33:36.280Z,25.65
2023-05-05T07:34:36.295Z,25.60
2023-05-05T07:35:36.303Z,25.62
2023-05-05T07:36:36.420Z,25.61
2023-05-05T07:37:36.289Z,25.60
2023-05-05T07:38:36.335Z,25.58
2023-05-05T07:39:36.255Z,25.60
2023-05-05T07:40:36.251Z,25.58
2023-05-05T07:41:36.258Z,25.09
2023-05-05T07:42:36.586Z,25.07
2023-05-05T07:43:36.201Z,24.83
2023-05-05T07:44:36.270Z,24.83
2023-05-05T07:45:36.243Z,24.51
2023-05-05T07:46:36.475Z,24.10
2023-05-05T07:47:36.661Z,23.42
2023-05-05T07:48:36.193Z,22.90
2023-05-05T07:49:36.241Z,22.88
2023-05-05T07:50:36.220Z,23.08
2023-05-05T07:51:36.159Z,23.21
2023-05-05T07:52:46.912Z,23.35
2023-05-05T07:53:37.177Z,23.52
2023-05-05T07:54:36.236Z,23.63
2023-05-05T07:55:36.144Z,23.76
2023-05-05T07:56:36.184Z,23.90
2023-05-05T07:57:36.153Z,24.03
2023-05-05T07:58:36.157Z,24.12
2023-05-05T07:59:36.131Z,24.22
2023-05-05T08:00:36.156Z,24.31
2023-05-05T08:01:36.127Z,24.39
2023-05-05T08:02:36.217Z,24.51
2023-05-05T08:03:36.272Z,24.56
2023-05-05T08:04:36.209Z,24.65
2023-05-05T08:05:36.065Z,24.69
2023-05-05T08:06:36.066Z,24.76
2023-05-05T08:07:36.071Z,24.79
2023-05-05T08:08:36.073Z,24.82
2023-05-05T08:09:36.058Z,24.90
2023-05-05T08:10:36.047Z,24.91
2023-05-05T08:11:36.056Z,24.97
2023-05-05T08:12:36.119Z,25.00
2023-05-05T08:13:36.067Z,25.05
2023-05-05T08:14:36.099Z,25.09
2023-05-05T08:15:36.109Z,25.11
2023-05-05T08:16:36.339Z,25.14
2023-05-05T08:17:36.279Z,25.18
2023-05-05T08:18:36.340Z,25.18
2023-05-05T08:19:36.384Z,25.23
2023-05-05T08:20:36.435Z,25.26
2023-05-05T08:21:36.470Z,25.26
2023-05-05T08:22:36.565Z,25.28
2023-05-05T08:23:36.580Z,25.30
2023-05-05T08:24:36.641Z,25.30
2023-05-05T08:25:36.701Z,25.34
2023-05-05T08:26:36.827Z,25.37
2023-05-05T08:27:36.792Z,25.37
2023-05-05T08:28:36.820Z,25.37
2023-05-05T08:29:36.918Z,25.38
2023-05-05T08:30:36.914Z,25.41
2023-05-05T08:31:36.999Z,25.41
2023-05-05T08:32:37.055Z,25.41
2023-05-05T08:33:37.050Z,25.40
2023-05-05T08:34:37.135Z,25.42
2023-05-05T08:35:37.272Z,25.33
2023-05-05T08:36:37.228Z,25.31
2023-05-05T08:37:37.641Z,25.35
2023-05-05T08:38:37.345Z,25.34
2023-05-05T08:39:37.412Z,25.40
2023-05-05T08:40:37.420Z,25.41
2023-05-05T08:41:37.503Z,25.40
2023-05-05T08:42:39.150Z,25.41
2023-05-05T08:43:37.582Z,25.42
2023-05-05T08:44:37.625Z,25.45
2023-05-05T08:45:37.682Z,25.37
2023-05-05T08:46:37.705Z,25.47
2023-05-05T08:47:37.824Z,25.45
2023-05-05T08:48:37.777Z,25.47
2023-05-05T08:49:37.839Z,25.49
2023-05-05T08:50:37.875Z,25.55
2023-05-05T08:51:37.880Z,25.62
2023-05-05T08:52:38.189Z,25.68
2023-05-05T08:53:37.934Z,25.68
2023-05-05T08:54:37.998Z,25.75
2023-05-05T08:55:37.983Z,25.72
2023-05-05T08:56:38.026Z,25.74
2023-05-05T08:57:38.055Z,25.78
2023-05-05T08:58:38.138Z,25.81
2023-05-05T08:59:38.061Z,25.83
2023-05-05T09:00:38.054Z,25.91
2023-05-05T09:01:38.194Z,25.93
2023-05-05T09:02:38.220Z,25.97
2023-05-05T09:03:38.265Z,26.00
2023-05-05T09:04:38.251Z,26.07
2023-05-05T09:05:38.287Z,26.12
2023-05-05T09:06:38.387Z,26.13
2023-05-05T09:07:38.604Z,26.19
2023-05-05T09:08:38.454Z,26.23
2023-05-05T09:09:38.491Z,26.27
2023-05-05T09:10:38.498Z,26.26
2023-05-05T09:11:38.561Z,26.30
2023-05-05T09:12:38.614Z,26.36
2023-05-05T09:13:38.594Z,26.39
2023-05-05T09:14:38.631Z,26.40
2023-05-05T09:15:38.620Z,26.44
2023-05-05T09:16:38.759Z,26.51
2023-05-05T09:17:38.747Z,26.52
2023-05-05T09:18:38.682Z,26.57
2023-05-05T09:19:38.696Z,26.60
2023-05-05T09:20:38.672Z,26.60
2023-05-05T09:21:38.724Z,26.62
2023-05-05T09:22:39.156Z,26.64
2023-05-05T09:23:38.716Z,26.70
2023-05-05T09:24:38.788Z,26.71
2023-05-05T09:25:38.822Z,26.73
2023-05-05T09:26:38.803Z,26.74
2023-05-05T09:27:39.136Z,26.78
2023-05-05T09:28:38.865Z,26.79
2023-05-05T09:29:38.830Z,26.78
2023-05-05T09:30:38.936Z,26.82
2023-05-05T09:31:38.962Z,26.84
2023-05-05T09:32:39.011Z,26.88
2023-05-05T09:33:39.020Z,26.89
2023-05-05T09:34:39.074Z,26.88
2023-05-05T09:35:39.668Z,26.92
2023-05-05T09:36:39.185Z,26.94
2023-05-05T09:37:39.649Z,26.91
2023-05-05T09:38:39.278Z,26.94
2023-05-05T09:39:39.345Z,26.94
2023-05-05T09:40:39.393Z,26.97
2023-05-05T09:41:39.532Z,26.95
2023-05-05T09:42:39.629Z,26.95
2023-05-05T09:43:39.524Z,26.97
2023-05-05T09:44:39.508Z,26.94
2023-05-05T09:45:39.544Z,26.92
2023-05-05T09:46:39.704Z,26.89
2023-05-05T09:47:39.654Z,26.89
2023-05-05T09:48:39.616Z,26.84
2023-05-05T09:49:39.736Z,26.82
2023-05-05T09:50:39.607Z,26.79
2023-05-05T09:51:39.608Z,26.77
2023-05-05T09:52:39.673Z,26.74
2023-05-05T09:53:39.680Z,26.68
2023-05-05T09:54:39.691Z,26.67
2023-05-05T09:55:39.703Z,26.67
2023-05-05T09:56:39.753Z,26.62
2023-05-05T09:57:40.171Z,26.61
2023-05-05T09:58:39.829Z,26.58
2023-05-05T09:59:39.802Z,26.58
2023-05-05T10:00:39.858Z,26.54
2023-05-05T10:01:39.875Z,26.52
2023-05-05T10:02:39.981Z,26.51
2023-05-05T10:03:39.913Z,26.48
2023-05-05T10:04:39.962Z,26.48
2023-05-05T10:05:40.003Z,26.46
2023-05-05T10:06:40.024Z,26.46
2023-05-05T10:07:40.136Z,26.43
2023-05-05T10:08:40.077Z,26.43
2023-05-05T10:09:40.081Z,26.43
2023-05-05T10:10:40.099Z,26.40
2023-05-05T10:11:40.140Z,26.40
2023-05-05T10:12:40.286Z,26.40
2023-05-05T10:13:40.212Z,26.37
2023-05-05T10:14:40.269Z,26.37
2023-05-05T10:15:40.282Z,26.37
2023-05-05T10:16:40.417Z,26.39
2023-05-05T10:17:43.960Z,26.33
2023-05-05T10:18:41.520Z,26.36
2023-05-05T10:19:40.393Z,26.34
2023-05-05T10:20:40.325Z,26.33
2023-05-05T10:21:41.956Z,26.31
2023-05-05T10:22:40.434Z,26.31
2023-05-05T10:23:40.383Z,26.33
2023-05-05T10:24:40.424Z,26.31
2023-05-05T10:25:40.418Z,26.30
2023-05-05T10:26:40.509Z,26.30
2023-05-05T10:27:40.530Z,26.29
2023-05-05T10:28:40.556Z,26.27
2023-05-05T10:29:40.639Z,26.29
2023-05-05T10:30:40.680Z,26.30
2023-05-05T10:31:40.696Z,26.29
2023-05-05T10:32:53.951Z,26.30
2023-05-05T10:33:42.363Z,26.31
2023-05-05T10:34:40.842Z,26.30
2023-05-05T10:35:40.694Z,26.29
2023-05-05T10:36:40.685Z,26.27
2023-05-05T10:37:40.680Z,26.30
2023-05-05T10:38:40.757Z,26.33
2023-05-05T10:39:40.711Z,26.36
2023-05-05T10:40:40.682Z,26.40
2023-05-05T10:41:40.652Z,26.43
2023-05-05T10:42:40.664Z,26.51
2023-05-05T10:43:40.685Z,26.58
2023-05-05T10:44:40.633Z,26.61
2023-05-05T10:45:40.803Z,26.67
2023-05-05T10:46:40.833Z,26.67
2023-05-05T10:47:40.690Z,26.75
2023-05-05T10:48:40.780Z,26.81
2023-05-05T10:49:40.689Z,26.87
2023-05-05T10:50:40.847Z,26.89
2023-05-05T10:51:41.304Z,26.95
2023-05-05T10:52:40.833Z,26.99
2023-05-05T10:53:40.842Z,27.03
2023-05-05T10:54:40.899Z,27.05
2023-05-05T10:55:40.989Z,27.05
2023-05-05T10:56:40.991Z,27.03
2023-05-05T10:57:41.068Z,27.08
2023-05-05T10:58:58.377Z,27.12
2023-05-05T10:59:42.074Z,27.13
2023-05-05T11:00:41.096Z,27.15
2023-05-05T11:01:41.064Z,27.19
2023-05-05T11:02:41.100Z,27.19
2023-05-05T11:03:41.146Z,27.21
2023-05-05T11:04:41.031Z,27.25
2023-05-05T11:05:41.041Z,27.30
2023-05-05T11:06:41.095Z,27.39
2023-05-05T11:07:41.021Z,27.49
2023-05-05T11:08:41.003Z,27.54
2023-05-05T11:09:41.041Z,27.60
2023-05-05T11:10:41.011Z,27.60
2023-05-05T11:11:41.019Z,27.67
2023-05-05T11:12:40.978Z,27.66
2023-05-05T11:13:41.018Z,27.66
2023-05-05T11:14:41.058Z,27.68
2023-05-05T11:15:41.014Z,27.67
2023-05-05T11:16:41.082Z,27.66
2023-05-05T11:17:41.146Z,27.66
2023-05-05T11:18:41.083Z,27.61
2023-05-05T11:19:41.075Z,27.60
2023-05-05T11:20:41.084Z,27.58
2023-05-05T11:21:41.082Z,27.60
2023-05-05T11:22:41.124Z,27.57
2023-05-05T11:23:41.133Z,27.57
2023-05-05T11:24:41.125Z,27.56
2023-05-05T11:25:41.327Z,27.54
2023-05-05T11:26:41.156Z,27.57
2023-05-05T11:27:41.162Z,27.56
2023-05-05T11:28:41.759Z,27.56
2023-05-05T11:29:41.235Z,27.58
2023-05-05T11:30:41.336Z,27.56
2023-05-05T11:31:41.586Z,27.54
2023-05-05T11:32:41.406Z,27.58
2023-05-05T11:33:42.050Z,27.60
2023-05-05T11:34:41.338Z,27.60
2023-05-05T11:35:41.354Z,27.60
2023-05-05T11:36:41.346Z,27.58
2023-05-05T11:37:41.415Z,27.57
2023-05-05T11:38:41.503Z,27.56
2023-05-05T11:39:41.463Z,27.54
2023-05-05T11:40:41.473Z,27.53
2023-05-05T11:41:41.485Z,27.54
2023-05-05T11:42:41.500Z,27.54
2023-05-05T11:43:41.560Z,27.52
2023-05-05T11:44:41.590Z,27.50
2023-05-05T11:45:41.646Z,27.49
2023-05-05T11:46:41.780Z,27.47
2023-05-05T11:47:41.750Z,27.45
2023-05-05T11:48:41.778Z,27.45
2023-05-05T11:49:41.801Z,27.45
2023-05-05T11:50:41.862Z,27.40
2023-05-05T11:51:41.881Z,27.40
2023-05-05T11:52:41.929Z,27.36
2023-05-05T11:53:42.005Z,27.35
2023-05-05T11:54:42.124Z,27.35
2023-05-05T11:55:42.131Z,27.36
2023-05-05T11:56:42.133Z,27.33
2023-05-05T11:57:42.194Z,27.29
2023-05-05T11:58:42.243Z,27.32
2023-05-05T11:59:42.329Z,27.30
2023-05-05T12:00:42.357Z,27.29
2023-05-05T12:01:42.442Z,27.28
2023-05-05T12:02:42.561Z,27.28
2023-05-05T12:03:42.573Z,27.28
2023-05-05T12:04:43.338Z,27.28
2023-05-05T12:05:42.735Z,27.26
2023-05-05T12:06:42.670Z,27.26
2023-05-05T12:07:42.708Z,27.26
2023-05-05T12:08:42.775Z,27.26
2023-05-05T12:09:42.829Z,27.24
2023-05-05T12:10:42.904Z,27.25
2023-05-05T12:11:42.908Z,27.24
2023-05-05T12:12:42.992Z,27.24
2023-05-05T12:13:43.007Z,27.24
2023-05-05T12:14:43.033Z,27.22
2023-05-05T12:15:43.102Z,27.22
2023-05-05T12:16:43.187Z,27.24
2023-05-05T12:17:43.236Z,27.19
2023-05-05T12:18:43.204Z,27.21
2023-05-05T12:19:43.275Z,27.18
2023-05-05T12:20:43.319Z,27.18
2023-05-05T12:21:43.384Z,27.15
2023-05-05T12:22:43.402Z,27.19
2023-05-05T12:23:43.473Z,27.18
2023-05-05T12:24:43.476Z,27.16
2023-05-05T12:25:43.524Z,27.18
2023-05-05T12:26:43.665Z,27.21
2023-05-05T12:27:43.611Z,27.18
2023-05-05T12:28:43.640Z,27.18
2023-05-05T12:29:43.694Z,27.18
2023-05-05T12:30:43.839Z,27.18
2023-05-05T12:31:43.801Z,27.21
2023-05-05T12:32:43.961Z,27.21
2023-05-05T12:33:43.842Z,27.18
2023-05-05T12:34:43.884Z,27.18
2023-05-05T12:35:43.966Z,27.21
2023-05-05T12:36:44.014Z,27.21
2023-05-05T12:37:44.081Z,27.21
2023-05-05T12:38:44.098Z,27.22
2023-05-05T12:39:44.144Z,27.24
2023-05-05T12:40:44.206Z,27.24
2023-05-05T12:41:44.251Z,27.24
2023-05-05T12:42:46.296Z,27.25
2023-05-05T12:43:44.378Z,27.25
2023-05-05T12:44:44.450Z,27.26
2023-05-05T12:45:44.507Z,27.28
2023-05-05T12:46:44.528Z,27.28
2023-05-05T12:47:44.571Z,27.30
2023-05-05T12:48:47.967Z,27.28
2023-05-05T12:49:44.634Z,27.28
2023-05-05T12:50:44.594Z,27.29
2023-05-05T12:51:44.563Z,27.33
2023-05-05T12:52:44.578Z,27.32